createdAt,value
2017-10-12T00:00:21.221Z,21.78
2017-10-12T00:01:01.675Z,21.8
2017-10-12T00:01:42.126Z,21.81
2017-10-12T00:02:22.574Z,21.8
2017-10-12T00:03:03.010Z,21.81
2017-10-12T00:03:43.461Z,21.81
2017-10-12T00:04:23.923Z,21.83
2017-10-12T00:05:04.377Z,21.78
2017-10-12T00:05:44.823Z,21.75
2017-10-12T00:06:25.272Z,21.84
2017-10-12T00:07:05.725Z,21.74
2017-10-12T00:07:46.178Z,21.89
2017-10-12T00:08:26.683Z,21.77
2017-10-12T00:09:07.073Z,21.85
2017-10-12T00:09:47.519Z,21.78
2017-10-12T00:10:27.976Z,21.8
2017-10-12T00:11:08.414Z,21.74
2017-10-12T00:11:48.856Z,21.77
2017-10-12T00:12:29.310Z,21.74
2017-10-12T00:13:09.767Z,21.81
2017-10-12T00:13:50.226Z,21.77
2017-10-12T00:14:30.677Z,21.8
2017-10-12T00:15:11.129Z,21.77
2017-10-12T00:15:51.591Z,21.77
2017-10-12T00:16:32.042Z,21.78
2017-10-12T00:17:12.498Z,21.72
2017-10-12T00:17:52.947Z,21.75
2017-10-12T00:18:33.409Z,21.75
2017-10-12T00:19:13.861Z,21.78
2017-10-12T00:19:54.318Z,21.75
2017-10-12T00:20:34.778Z,21.75
2017-10-12T00:21:15.232Z,21.72
2017-10-12T00:23:07.754Z,21.72
2017-10-12T00:23:48.188Z,21.78
2017-10-12T00:24:28.652Z,21.74
2017-10-12T00:25:09.099Z,21.78
2017-10-12T00:25:49.559Z,21.77
2017-10-12T00:26:30.010Z,21.74
2017-10-12T00:27:10.459Z,21.77
2017-10-12T00:27:50.910Z,21.77
2017-10-12T00:28:31.351Z,21.77
2017-10-12T00:29:11.806Z,21.74
2017-10-12T00:29:52.254Z,21.74
2017-10-12T00:30:32.700Z,21.77
2017-10-12T00:31:13.153Z,21.74
2017-10-12T00:31:53.605Z,21.74
2017-10-12T00:32:34.066Z,21.74
2017-10-12T00:33:14.523Z,21.75
2017-10-12T00:33:54.970Z,21.74
2017-10-12T00:34:35.425Z,21.66
2017-10-12T00:35:15.879Z,21.75
2017-10-12T00:35:56.332Z,21.7
2017-10-12T00:36:36.798Z,21.69
2017-10-12T00:37:17.249Z,21.75
2017-10-12T00:37:57.709Z,21.74
2017-10-12T00:38:38.153Z,21.68
2017-10-12T00:39:18.606Z,21.72
2017-10-12T00:39:59.055Z,21.77
2017-10-12T00:40:39.504Z,21.75
2017-10-12T00:41:19.959Z,21.75
2017-10-12T00:42:00.416Z,21.7
2017-10-12T00:42:40.866Z,21.72
2017-10-12T00:43:21.312Z,21.72
2017-10-12T00:44:01.764Z,21.72
2017-10-12T00:44:42.209Z,21.68
2017-10-12T00:45:22.671Z,21.78
2017-10-12T00:46:03.119Z,21.74
2017-10-12T00:46:43.560Z,21.7
2017-10-12T00:47:24.014Z,21.74
2017-10-12T00:48:04.460Z,21.65
2017-10-12T00:48:44.914Z,21.72
2017-10-12T00:49:25.353Z,21.7
2017-10-12T00:50:05.832Z,21.72
2017-10-12T00:50:46.287Z,21.66
2017-10-12T00:51:26.744Z,21.65
2017-10-12T00:52:07.205Z,21.72
2017-10-12T00:52:47.665Z,21.74
2017-10-12T00:53:28.158Z,21.72
2017-10-12T00:54:08.577Z,21.75
2017-10-12T00:54:49.026Z,21.74
2017-10-12T00:55:29.479Z,21.74
2017-10-12T00:56:09.952Z,21.74
2017-10-12T00:56:50.390Z,21.66
2017-10-12T00:57:30.843Z,21.75
2017-10-12T00:58:11.303Z,21.74
2017-10-12T00:58:51.752Z,21.74
2017-10-12T00:59:32.214Z,21.72
2017-10-12T01:00:12.638Z,21.77
2017-10-12T01:00:53.092Z,21.74
2017-10-12T01:01:33.566Z,21.72
2017-10-12T01:02:14.030Z,21.74
2017-10-12T01:02:54.490Z,21.83
2017-10-12T01:03:34.943Z,21.75
2017-10-12T01:04:15.401Z,21.66
2017-10-12T01:04:55.852Z,21.72
2017-10-12T01:05:36.313Z,21.7
2017-10-12T01:06:16.790Z,21.77
2017-10-12T01:06:57.245Z,21.65
2017-10-12T01:07:37.693Z,21.77
2017-10-12T01:08:18.148Z,21.68
2017-10-12T01:08:58.596Z,21.8
2017-10-12T01:09:39.049Z,21.77
2017-10-12T01:10:19.497Z,21.77
2017-10-12T01:10:59.969Z,21.66
2017-10-12T01:11:40.408Z,21.74
2017-10-12T01:12:20.863Z,21.75
2017-10-12T01:13:01.314Z,21.78
2017-10-12T01:13:41.768Z,21.7
2017-10-12T01:14:22.227Z,21.77
2017-10-12T01:15:02.689Z,21.83
2017-10-12T01:15:43.148Z,21.69
2017-10-12T01:16:23.593Z,21.74
2017-10-12T01:17:04.048Z,21.77
2017-10-12T01:17:44.506Z,21.75
2017-10-12T01:18:24.965Z,21.8
2017-10-12T01:19:05.421Z,21.75
2017-10-12T01:19:45.869Z,21.74
2017-10-12T01:20:26.320Z,21.74
2017-10-12T01:21:06.784Z,21.74
2017-10-12T01:21:47.236Z,21.74
2017-10-12T01:22:27.690Z,21.74
2017-10-12T01:23:08.144Z,21.66
2017-10-12T01:23:48.605Z,21.77
2017-10-12T01:24:29.062Z,21.72
2017-10-12T01:25:09.516Z,21.68
2017-10-12T01:25:49.975Z,21.68
2017-10-12T01:26:30.429Z,21.74
2017-10-12T01:27:10.940Z,21.69
2017-10-12T01:27:51.390Z,21.74
2017-10-12T01:28:31.844Z,21.69
2017-10-12T01:29:12.296Z,21.7
2017-10-12T01:29:52.748Z,21.68
2017-10-12T01:30:33.204Z,21.68
2017-10-12T01:31:13.654Z,21.72
2017-10-12T01:31:54.107Z,21.74
2017-10-12T01:32:34.559Z,21.75
2017-10-12T01:33:15.012Z,21.69
2017-10-12T01:33:55.465Z,21.68
2017-10-12T01:34:35.923Z,21.74
2017-10-12T01:35:16.382Z,21.68
2017-10-12T01:35:56.835Z,21.66
2017-10-12T01:36:37.281Z,21.72
2017-10-12T01:37:17.733Z,21.74
2017-10-12T01:37:58.189Z,21.68
2017-10-12T01:38:38.654Z,21.75
2017-10-12T01:39:19.103Z,21.63
2017-10-12T01:39:59.560Z,21.69
2017-10-12T01:40:40.012Z,21.69
2017-10-12T01:41:20.466Z,21.74
2017-10-12T01:42:00.923Z,21.68
2017-10-12T01:42:41.389Z,21.66
2017-10-12T01:43:21.842Z,21.66
2017-10-12T01:44:02.313Z,21.68
2017-10-12T01:44:42.780Z,21.68
2017-10-12T01:45:23.222Z,21.66
2017-10-12T01:46:03.669Z,21.68
2017-10-12T01:46:44.135Z,21.65
2017-10-12T01:47:24.587Z,21.66
2017-10-12T01:48:05.076Z,21.66
2017-10-12T01:48:45.527Z,21.65
2017-10-12T01:49:25.982Z,21.58
2017-10-12T01:50:06.431Z,21.59
2017-10-12T01:50:46.880Z,21.63
2017-10-12T01:51:27.331Z,21.6
2017-10-12T01:52:07.778Z,21.63
2017-10-12T01:52:48.225Z,21.66
2017-10-12T01:53:28.675Z,21.68
2017-10-12T01:54:09.125Z,21.7
2017-10-12T01:54:49.580Z,21.65
2017-10-12T01:55:30.039Z,21.68
2017-10-12T01:56:10.483Z,21.59
2017-10-12T01:56:50.933Z,21.74
2017-10-12T01:57:31.381Z,21.65
2017-10-12T01:58:11.825Z,21.66
2017-10-12T01:58:52.267Z,21.65
2017-10-12T01:59:32.713Z,21.65
2017-10-12T02:00:13.171Z,21.65
2017-10-12T02:00:53.619Z,21.63
2017-10-12T02:01:34.067Z,21.63
2017-10-12T02:02:14.522Z,21.68
2017-10-12T02:02:54.969Z,21.69
2017-10-12T02:03:35.428Z,21.66
2017-10-12T02:04:15.884Z,21.72
2017-10-12T02:04:56.331Z,21.69
2017-10-12T02:05:36.811Z,21.7
2017-10-12T02:06:17.243Z,21.7
2017-10-12T02:06:57.693Z,21.74
2017-10-12T02:07:38.153Z,21.75
2017-10-12T02:08:18.595Z,21.7
2017-10-12T02:08:59.047Z,21.75
2017-10-12T02:09:39.563Z,21.75
2017-10-12T02:10:20.012Z,21.69
2017-10-12T02:11:00.462Z,21.75
2017-10-12T02:11:40.922Z,21.77
2017-10-12T02:12:21.376Z,21.77
2017-10-12T02:13:01.831Z,21.74
2017-10-12T02:13:42.290Z,21.72
2017-10-12T02:14:22.745Z,21.78
2017-10-12T02:15:03.211Z,21.75
2017-10-12T02:15:43.679Z,21.75
2017-10-12T02:16:24.116Z,21.77
2017-10-12T02:17:04.579Z,21.74
2017-10-12T02:17:45.025Z,21.78
2017-10-12T02:18:25.482Z,21.72
2017-10-12T02:19:05.932Z,21.74
2017-10-12T02:19:46.390Z,21.81
2017-10-12T02:20:26.843Z,21.74
2017-10-12T02:21:07.300Z,21.81
2017-10-12T02:21:47.756Z,21.75
2017-10-12T02:22:28.210Z,21.78
2017-10-12T02:23:08.668Z,21.78
2017-10-12T02:23:49.119Z,21.8
2017-10-12T02:24:29.569Z,21.74
2017-10-12T02:25:10.020Z,21.74
2017-10-12T02:25:50.477Z,21.77
2017-10-12T02:26:30.934Z,21.74
2017-10-12T02:27:11.399Z,21.72
2017-10-12T02:27:51.852Z,21.75
2017-10-12T02:28:32.303Z,21.75
2017-10-12T02:29:12.761Z,21.72
2017-10-12T02:29:53.227Z,21.72
2017-10-12T02:30:33.677Z,21.68
2017-10-12T02:31:14.110Z,21.77
2017-10-12T02:31:54.567Z,21.8
2017-10-12T02:32:35.023Z,21.75
2017-10-12T02:33:15.479Z,21.75
2017-10-12T02:33:55.934Z,21.75
2017-10-12T02:34:36.396Z,21.72
2017-10-12T02:35:16.856Z,21.7
2017-10-12T02:35:57.314Z,21.74
2017-10-12T02:36:37.772Z,21.74
2017-10-12T02:37:18.235Z,21.7
2017-10-12T02:37:58.690Z,21.7
2017-10-12T02:38:39.140Z,21.7
2017-10-12T02:39:19.602Z,21.72
2017-10-12T02:40:00.051Z,21.69
2017-10-12T02:40:40.505Z,21.74
2017-10-12T02:41:20.972Z,21.78
2017-10-12T02:42:01.401Z,21.69
2017-10-12T02:42:41.864Z,21.72
2017-10-12T02:43:22.324Z,21.7
2017-10-12T02:44:02.773Z,21.72
2017-10-12T02:44:43.220Z,21.72
2017-10-12T02:45:23.669Z,21.83
2017-10-12T02:46:04.134Z,21.66
2017-10-12T02:46:44.585Z,21.75
2017-10-12T02:47:25.032Z,21.78
2017-10-12T02:48:05.495Z,21.75
2017-10-12T02:48:45.953Z,21.75
2017-10-12T02:49:26.405Z,21.7
2017-10-12T02:50:06.860Z,21.69
2017-10-12T02:50:47.320Z,21.7
2017-10-12T02:51:27.798Z,21.72
2017-10-12T02:52:08.246Z,21.68
2017-10-12T02:52:48.699Z,21.66
2017-10-12T02:53:29.171Z,21.69
2017-10-12T02:54:09.621Z,21.75
2017-10-12T02:54:50.084Z,21.66
2017-10-12T02:55:30.536Z,21.72
2017-10-12T02:56:10.988Z,21.68
2017-10-12T02:56:51.435Z,21.81
2017-10-12T02:57:31.887Z,21.78
2017-10-12T02:58:12.335Z,21.75
2017-10-12T02:58:52.786Z,21.62
2017-10-12T02:59:33.247Z,21.66
2017-10-12T03:00:13.702Z,21.66
2017-10-12T03:00:54.156Z,21.69
2017-10-12T03:01:34.607Z,21.66
2017-10-12T03:02:15.065Z,21.69
2017-10-12T03:02:55.528Z,21.69
2017-10-12T03:03:35.990Z,21.65
2017-10-12T03:04:16.438Z,21.66
2017-10-12T03:04:56.891Z,21.69
2017-10-12T03:05:37.394Z,21.65
2017-10-12T03:06:17.796Z,21.68
2017-10-12T03:06:58.254Z,21.66
2017-10-12T03:07:38.701Z,21.68
2017-10-12T03:08:19.160Z,21.65
2017-10-12T03:08:59.644Z,21.7
2017-10-12T03:09:40.116Z,21.65
2017-10-12T03:10:20.563Z,21.65
2017-10-12T03:11:01.018Z,21.69
2017-10-12T03:11:41.473Z,21.69
2017-10-12T03:12:21.926Z,21.63
2017-10-12T03:13:02.385Z,21.72
2017-10-12T03:13:42.843Z,21.69
2017-10-12T03:14:23.305Z,21.69
2017-10-12T03:15:03.749Z,21.69
2017-10-12T03:15:44.202Z,21.69
2017-10-12T03:16:24.666Z,21.66
2017-10-12T03:17:05.123Z,21.66
2017-10-12T03:17:45.583Z,21.66
2017-10-12T03:18:26.045Z,21.69
2017-10-12T03:19:06.502Z,21.66
2017-10-12T03:19:46.968Z,21.66
2017-10-12T03:20:27.420Z,21.7
2017-10-12T03:21:07.873Z,21.69
2017-10-12T03:21:48.328Z,21.69
2017-10-12T03:22:28.788Z,21.66
2017-10-12T03:23:09.247Z,21.68
2017-10-12T03:23:49.702Z,21.7
2017-10-12T03:24:30.165Z,21.68
2017-10-12T03:25:10.620Z,21.72
2017-10-12T03:25:51.082Z,21.75
2017-10-12T03:26:31.566Z,21.75
2017-10-12T03:27:11.981Z,21.66
2017-10-12T03:27:52.433Z,21.72
2017-10-12T03:28:32.894Z,21.75
2017-10-12T03:30:11.371Z,21.75
2017-10-12T03:30:51.952Z,21.74
2017-10-12T03:31:32.750Z,21.74
2017-10-12T03:32:13.906Z,21.8
2017-10-12T03:32:54.467Z,21.63
2017-10-12T03:33:34.870Z,21.75
2017-10-12T03:34:15.268Z,21.69
2017-10-12T03:34:55.715Z,21.68
2017-10-12T03:35:36.170Z,21.77
2017-10-12T03:36:16.624Z,21.75
2017-10-12T03:36:57.080Z,21.75
2017-10-12T03:37:37.542Z,21.74
2017-10-12T03:38:17.989Z,21.74
2017-10-12T03:38:58.449Z,21.77
2017-10-12T03:39:38.915Z,21.78
2017-10-12T03:40:19.380Z,21.77
2017-10-12T03:40:59.835Z,21.75
2017-10-12T03:41:40.275Z,21.77
2017-10-12T03:42:20.713Z,21.8
2017-10-12T03:43:01.220Z,21.75
2017-10-12T03:43:41.622Z,21.78
2017-10-12T03:44:22.074Z,21.77
2017-10-12T03:45:02.522Z,21.77
2017-10-12T03:45:42.967Z,21.75
2017-10-12T03:46:23.422Z,21.68
2017-10-12T03:47:03.875Z,21.72
2017-10-12T03:47:44.331Z,21.77
2017-10-12T03:48:24.788Z,21.72
2017-10-12T03:49:05.242Z,21.7
2017-10-12T03:49:45.692Z,21.66
2017-10-12T03:50:26.157Z,21.8
2017-10-12T03:51:06.623Z,21.75
2017-10-12T03:51:47.082Z,21.78
2017-10-12T03:52:27.532Z,21.74
2017-10-12T03:53:07.987Z,21.7
2017-10-12T03:53:48.443Z,21.75
2017-10-12T03:54:28.898Z,21.69
2017-10-12T03:55:09.361Z,21.69
2017-10-12T03:55:49.820Z,21.81
2017-10-12T03:56:30.275Z,21.7
2017-10-12T03:57:10.728Z,21.78
2017-10-12T03:57:51.184Z,21.75
2017-10-12T03:58:31.638Z,21.69
2017-10-12T03:59:12.109Z,21.77
2017-10-12T03:59:52.562Z,21.75
2017-10-12T04:00:33.017Z,21.8
2017-10-12T04:01:13.448Z,21.8
2017-10-12T04:01:53.902Z,21.81
2017-10-12T04:02:34.355Z,21.75
2017-10-12T04:03:14.815Z,21.78
2017-10-12T04:03:55.279Z,21.78
2017-10-12T04:04:35.736Z,21.75
2017-10-12T04:05:16.198Z,21.83
2017-10-12T04:05:56.651Z,21.8
2017-10-12T04:06:37.104Z,21.75
2017-10-12T04:07:17.556Z,21.83
2017-10-12T04:07:57.997Z,21.8
2017-10-12T04:08:38.452Z,21.75
2017-10-12T04:09:18.915Z,21.77
2017-10-12T04:09:59.367Z,21.77
2017-10-12T04:10:39.816Z,21.8
2017-10-12T04:11:20.273Z,21.78
2017-10-12T04:12:00.736Z,21.8
2017-10-12T04:12:41.189Z,21.8
2017-10-12T04:13:21.639Z,21.72
2017-10-12T04:14:02.088Z,21.81
2017-10-12T04:14:42.551Z,21.83
2017-10-12T04:15:22.994Z,21.78
2017-10-12T04:16:03.437Z,21.84
2017-10-12T04:16:43.881Z,21.83
2017-10-12T04:17:24.337Z,21.81
2017-10-12T04:18:04.793Z,21.81
2017-10-12T04:18:45.252Z,21.83
2017-10-12T04:19:25.701Z,21.88
2017-10-12T04:20:06.163Z,21.89
2017-10-12T04:20:46.614Z,21.84
2017-10-12T04:21:27.064Z,21.88
2017-10-12T04:22:07.518Z,21.92
2017-10-12T04:22:47.961Z,21.89
2017-10-12T04:23:28.415Z,21.89
2017-10-12T04:24:08.872Z,21.91
2017-10-12T04:24:49.330Z,21.85
2017-10-12T04:25:29.777Z,21.92
2017-10-12T04:26:10.236Z,21.94
2017-10-12T04:26:50.685Z,21.85
2017-10-12T04:27:31.125Z,21.97
2017-10-12T04:28:11.577Z,21.97
2017-10-12T04:28:52.027Z,21.99
2017-10-12T04:29:32.477Z,21.97
2017-10-12T04:30:12.933Z,21.96
2017-10-12T04:30:53.384Z,21.94
2017-10-12T04:31:33.845Z,21.91
2017-10-12T04:32:14.298Z,21.99
2017-10-12T04:32:54.761Z,21.92
2017-10-12T04:33:35.210Z,21.85
2017-10-12T04:34:15.663Z,22
2017-10-12T04:34:56.118Z,21.99
2017-10-12T04:35:36.573Z,21.99
2017-10-12T04:36:17.028Z,21.97
2017-10-12T04:36:57.488Z,21.97
2017-10-12T04:37:37.917Z,22
2017-10-12T04:38:18.375Z,21.96
2017-10-12T04:38:58.828Z,22.01
2017-10-12T04:39:39.278Z,22.03
2017-10-12T04:40:19.728Z,22.07
2017-10-12T04:41:00.186Z,22.03
2017-10-12T04:41:40.643Z,22.04
2017-10-12T04:42:21.098Z,22.03
2017-10-12T04:43:01.546Z,22
2017-10-12T04:43:41.991Z,22.03
2017-10-12T04:44:22.438Z,22.07
2017-10-12T04:45:02.894Z,22.08
2017-10-12T04:45:43.350Z,22.06
2017-10-12T04:46:23.817Z,22.07
2017-10-12T04:47:04.275Z,22.03
2017-10-12T04:47:44.734Z,22.08
2017-10-12T04:48:25.188Z,22.04
2017-10-12T04:49:05.622Z,22.1
2017-10-12T04:49:46.068Z,22.08
2017-10-12T04:50:26.527Z,22.08
2017-10-12T04:51:06.982Z,22.07
2017-10-12T04:51:47.428Z,22.1
2017-10-12T04:52:27.890Z,22.07
2017-10-12T04:53:08.347Z,22.12
2017-10-12T04:53:48.798Z,22.12
2017-10-12T04:54:29.254Z,22.08
2017-10-12T04:55:09.713Z,22.08
2017-10-12T04:55:50.178Z,22.07
2017-10-12T04:56:30.630Z,22.01
2017-10-12T04:57:11.090Z,22.07
2017-10-12T04:57:51.546Z,22.12
2017-10-12T04:58:32.000Z,22.04
2017-10-12T04:59:12.469Z,22.07
2017-10-12T04:59:52.914Z,22.06
2017-10-12T05:00:33.367Z,22
2017-10-12T05:01:13.822Z,22.12
2017-10-12T05:01:54.277Z,22
2017-10-12T05:02:34.727Z,22.08
2017-10-12T05:03:15.180Z,22.03
2017-10-12T05:03:55.639Z,22.08
2017-10-12T05:04:36.097Z,22.01
2017-10-12T05:05:16.551Z,22.06
2017-10-12T05:05:57.007Z,22.06
2017-10-12T05:06:37.464Z,22.1
2017-10-12T05:07:17.917Z,22.03
2017-10-12T05:07:58.370Z,22.01
2017-10-12T05:08:38.824Z,22.08
2017-10-12T05:09:19.311Z,22.04
2017-10-12T05:09:59.763Z,22.12
2017-10-12T05:10:40.223Z,22.08
2017-10-12T05:11:20.667Z,22.07
2017-10-12T05:12:01.119Z,21.99
2017-10-12T05:12:41.565Z,22.06
2017-10-12T05:13:22.026Z,22.04
2017-10-12T05:14:02.477Z,21.99
2017-10-12T05:14:42.934Z,22.07
2017-10-12T05:15:23.391Z,21.99
2017-10-12T05:16:03.826Z,22.12
2017-10-12T05:16:44.266Z,22.06
2017-10-12T05:17:24.721Z,22.06
2017-10-12T05:18:05.187Z,22.03
2017-10-12T05:18:45.659Z,22.06
2017-10-12T05:19:26.120Z,22.07
2017-10-12T05:20:06.572Z,22.03
2017-10-12T05:20:47.025Z,22.12
2017-10-12T05:21:27.488Z,22.1
2017-10-12T05:22:07.953Z,22.08
2017-10-12T05:22:48.400Z,22.08
2017-10-12T05:23:28.851Z,22.01
2017-10-12T05:24:09.302Z,22.06
2017-10-12T05:24:49.751Z,22.08
2017-10-12T05:25:30.205Z,22.08
2017-10-12T05:26:10.663Z,22.04
2017-10-12T05:26:51.134Z,22.1
2017-10-12T05:27:31.587Z,22.07
2017-10-12T05:28:12.047Z,22.06
2017-10-12T05:28:52.491Z,22.04
2017-10-12T05:29:32.952Z,22.07
2017-10-12T05:30:13.404Z,22.04
2017-10-12T05:30:53.867Z,22.08
2017-10-12T05:31:34.330Z,22.04
2017-10-12T05:32:14.778Z,22.08
2017-10-12T05:32:55.234Z,22.03
2017-10-12T05:33:35.684Z,22.08
2017-10-12T05:34:16.129Z,22.04
2017-10-12T05:34:56.567Z,22.08
2017-10-12T05:35:37.026Z,22.07
2017-10-12T05:36:17.475Z,22.07
2017-10-12T05:36:57.925Z,22.06
2017-10-12T05:37:38.385Z,22.04
2017-10-12T05:38:18.826Z,22
2017-10-12T05:38:59.279Z,22.03
2017-10-12T05:39:39.727Z,22.01
2017-10-12T05:40:20.184Z,21.99
2017-10-12T05:41:00.639Z,22.04
2017-10-12T05:41:41.099Z,22.01
2017-10-12T05:42:21.562Z,21.99
2017-10-12T05:43:02.026Z,22.06
2017-10-12T05:43:42.487Z,22
2017-10-12T05:44:23.305Z,21.99
2017-10-12T05:45:03.762Z,22
2017-10-12T05:45:44.202Z,22.06
2017-10-12T05:46:24.657Z,22.03
2017-10-12T05:47:05.116Z,22.01
2017-10-12T05:47:45.739Z,22.06
2017-10-12T05:48:26.194Z,22.01
2017-10-12T05:49:06.949Z,22.03
2017-10-12T05:49:47.665Z,22.04
2017-10-12T05:50:28.052Z,22.01
2017-10-12T05:51:08.391Z,21.99
2017-10-12T05:51:49.283Z,22.08
2017-10-12T05:52:29.585Z,22.06
2017-10-12T05:53:10.309Z,22.04
2017-10-12T05:53:50.759Z,22.07
2017-10-12T05:54:31.270Z,22.07
2017-10-12T05:55:11.720Z,22.08
2017-10-12T05:55:52.276Z,22.06
2017-10-12T05:56:32.725Z,22.07
2017-10-12T05:57:13.185Z,22.1
2017-10-12T05:57:53.634Z,22
2017-10-12T05:58:34.092Z,22.04
2017-10-12T05:59:14.540Z,22.12
2017-10-12T05:59:54.992Z,22.06
2017-10-12T06:00:35.440Z,22.12
2017-10-12T06:01:15.893Z,22.03
2017-10-12T06:01:56.355Z,22.06
2017-10-12T06:02:36.806Z,22.03
2017-10-12T06:03:17.278Z,22.06
2017-10-12T06:03:57.713Z,22.06
2017-10-12T06:04:38.171Z,22.08
2017-10-12T06:05:18.633Z,22.1
2017-10-12T06:05:59.089Z,22.07
2017-10-12T06:06:39.536Z,22.06
2017-10-12T06:07:19.999Z,22.1
2017-10-12T06:08:00.446Z,22.07
2017-10-12T06:08:40.901Z,22.06
2017-10-12T06:09:21.358Z,22.08
2017-10-12T06:10:01.811Z,22.01
2017-10-12T06:10:42.285Z,22
2017-10-12T06:11:22.727Z,22.12
2017-10-12T06:12:03.181Z,22.14
2017-10-12T06:12:43.626Z,22.16
2017-10-12T06:13:24.078Z,22.12
2017-10-12T06:14:04.527Z,22.15
2017-10-12T06:14:44.976Z,22.16
2017-10-12T06:15:25.428Z,22.14
2017-10-12T06:16:05.873Z,22.16
2017-10-12T06:16:46.330Z,22.18
2017-10-12T06:17:26.795Z,22.16
2017-10-12T06:18:07.249Z,22.19
2017-10-12T06:18:47.709Z,22.19
2017-10-12T06:19:28.163Z,22.18
2017-10-12T06:20:08.640Z,22.19
2017-10-12T06:20:49.086Z,22.14
2017-10-12T06:21:29.541Z,22.21
2017-10-12T06:22:09.980Z,22.18
2017-10-12T06:22:50.430Z,22.22
2017-10-12T06:23:30.884Z,22.16
2017-10-12T06:24:11.342Z,22.12
2017-10-12T06:24:51.794Z,22.15
2017-10-12T06:25:32.245Z,22.12
2017-10-12T06:26:12.704Z,22.16
2017-10-12T06:26:53.157Z,22.22
2017-10-12T06:27:33.598Z,22.18
2017-10-12T06:28:14.047Z,22.19
2017-10-12T06:28:54.510Z,22.18
2017-10-12T06:29:34.965Z,22.21
2017-10-12T06:30:15.432Z,22.16
2017-10-12T06:30:55.896Z,22.18
2017-10-12T06:31:36.360Z,22.22
2017-10-12T06:32:16.808Z,22.22
2017-10-12T06:32:57.261Z,22.19
2017-10-12T06:33:37.701Z,22.16
2017-10-12T06:34:18.162Z,22.19
2017-10-12T06:34:58.615Z,22.22
2017-10-12T06:35:39.059Z,22.3
2017-10-12T06:36:19.519Z,22.28
2017-10-12T06:36:59.961Z,22.25
2017-10-12T06:37:40.418Z,22.23
2017-10-12T06:38:20.878Z,22.31
2017-10-12T06:39:01.316Z,22.3
2017-10-12T06:39:41.778Z,22.22
2017-10-12T06:40:22.557Z,22.28
2017-10-12T06:41:03.035Z,22.26
2017-10-12T06:41:43.473Z,22.28
2017-10-12T06:42:23.939Z,22.28
2017-10-12T06:43:04.388Z,22.3
2017-10-12T06:43:44.832Z,22.28
2017-10-12T06:44:25.285Z,22.21
2017-10-12T06:45:05.751Z,22.28
2017-10-12T06:45:46.203Z,22.28
2017-10-12T06:46:26.654Z,22.21
2017-10-12T06:47:07.105Z,22.25
2017-10-12T06:47:47.564Z,22.26
2017-10-12T06:48:28.018Z,22.3
2017-10-12T06:49:08.476Z,22.28
2017-10-12T06:49:49.297Z,22.3
2017-10-12T06:50:29.765Z,22.26
2017-10-12T06:51:10.219Z,22.19
2017-10-12T06:51:50.686Z,22.19
2017-10-12T06:52:31.156Z,22.23
2017-10-12T06:53:11.606Z,22.16
2017-10-12T06:53:52.079Z,22.23
2017-10-12T06:54:32.529Z,22.25
2017-10-12T06:55:12.994Z,22.18
2017-10-12T06:55:53.443Z,22.21
2017-10-12T06:56:33.898Z,22.23
2017-10-12T06:57:14.349Z,22.18
2017-10-12T06:57:54.805Z,22.23
2017-10-12T06:58:35.281Z,22.21
2017-10-12T06:59:15.738Z,22.28
2017-10-12T06:59:56.199Z,22.21
2017-10-12T07:00:36.677Z,22.22
2017-10-12T07:01:17.132Z,22.18
2017-10-12T07:01:57.585Z,22.25
2017-10-12T07:02:38.091Z,22.23
2017-10-12T07:03:18.538Z,22.18
2017-10-12T07:03:59.007Z,22.23
2017-10-12T07:04:39.459Z,22.26
2017-10-12T07:05:19.919Z,22.19
2017-10-12T07:06:00.375Z,22.23
2017-10-12T07:06:40.827Z,22.21
2017-10-12T07:07:21.284Z,22.18
2017-10-12T07:08:01.737Z,22.12
2017-10-12T07:08:42.192Z,22.07
2017-10-12T07:09:22.651Z,21.84
2017-10-12T07:10:03.110Z,21.66
2017-10-12T07:10:43.577Z,21.5
2017-10-12T07:11:24.022Z,21.2
2017-10-12T07:12:04.474Z,21.07
2017-10-12T07:12:44.930Z,21.01
2017-10-12T07:13:25.398Z,20.89
2017-10-12T07:14:05.855Z,20.78
2017-10-12T07:14:46.305Z,20.83
2017-10-12T07:15:26.767Z,20.83
2017-10-12T07:16:07.225Z,20.88
2017-10-12T07:16:47.671Z,20.93
2017-10-12T07:17:28.126Z,21
2017-10-12T07:18:08.581Z,21
2017-10-12T07:18:49.031Z,21.08
2017-10-12T07:19:29.487Z,21.17
2017-10-12T07:20:09.941Z,21.2
2017-10-12T07:20:50.402Z,21.26
2017-10-12T07:21:30.856Z,21.26
2017-10-12T07:22:11.314Z,21.48
2017-10-12T07:22:51.796Z,21.5
2017-10-12T07:23:32.219Z,21.56
2017-10-12T07:24:12.672Z,21.56
2017-10-12T07:24:53.130Z,21.59
2017-10-12T07:25:33.585Z,21.62
2017-10-12T07:26:14.043Z,21.65
2017-10-12T07:26:54.503Z,21.8
2017-10-12T07:27:34.965Z,21.75
2017-10-12T07:28:15.412Z,21.78
2017-10-12T07:28:55.869Z,21.78
2017-10-12T07:29:36.319Z,21.8
2017-10-12T07:30:16.784Z,21.89
2017-10-12T07:30:57.222Z,21.96
2017-10-12T07:31:37.679Z,21.91
2017-10-12T07:32:18.142Z,21.96
2017-10-12T07:32:58.598Z,22
2017-10-12T07:33:39.042Z,22.07
2017-10-12T07:34:19.503Z,22.07
2017-10-12T07:34:59.962Z,22.16
2017-10-12T07:35:40.417Z,22.15
2017-10-12T07:36:20.875Z,22.16
2017-10-12T07:37:01.332Z,22.16
2017-10-12T07:37:41.794Z,22.22
2017-10-12T07:38:22.249Z,22.26
2017-10-12T07:39:02.708Z,22.25
2017-10-12T07:39:43.292Z,22.28
2017-10-12T07:40:23.620Z,22.33
2017-10-12T07:41:04.070Z,22.26
2017-10-12T07:41:44.529Z,22.36
2017-10-12T07:42:24.982Z,22.34
2017-10-12T07:43:05.441Z,22.43
2017-10-12T07:43:45.890Z,22.37
2017-10-12T07:44:26.359Z,22.52
2017-10-12T07:45:06.812Z,22.47
2017-10-12T07:45:47.270Z,22.55
2017-10-12T07:46:27.729Z,22.55
2017-10-12T07:47:08.227Z,22.56
2017-10-12T07:47:48.692Z,22.65
2017-10-12T07:48:29.143Z,22.74
2017-10-12T07:49:09.600Z,22.71
2017-10-12T07:49:50.063Z,22.71
2017-10-12T07:50:30.518Z,22.71
2017-10-12T07:51:10.977Z,22.71
2017-10-12T07:51:51.438Z,22.76
2017-10-12T07:52:31.902Z,22.76
2017-10-12T07:53:12.371Z,22.81
2017-10-12T07:53:52.989Z,22.71
2017-10-12T07:54:34.431Z,22.74
2017-10-12T07:55:18.769Z,22.8
2017-10-12T07:56:06.800Z,22.83
2017-10-12T07:56:48.761Z,22.86
2017-10-12T07:57:29.209Z,22.81
2017-10-12T07:58:09.683Z,22.93
2017-10-12T07:58:50.868Z,22.96
2017-10-12T07:59:32.481Z,23.02
2017-10-12T08:01:11.179Z,23.1
2017-10-12T08:01:51.615Z,23.25
2017-10-12T08:02:32.126Z,23.37
2017-10-12T08:03:12.704Z,23.32
2017-10-12T08:03:53.164Z,23.39
2017-10-12T08:04:33.621Z,23.48
2017-10-12T08:05:14.072Z,23.59
2017-10-12T08:05:54.528Z,23.67
2017-10-12T08:06:34.980Z,23.66
2017-10-12T08:07:15.433Z,23.62
2017-10-12T08:07:55.916Z,23.77
2017-10-12T08:08:36.397Z,23.67
2017-10-12T08:09:16.846Z,23.74
2017-10-12T08:09:57.296Z,23.76
2017-10-12T08:10:37.779Z,23.7
2017-10-12T08:11:18.228Z,23.62
2017-10-12T08:11:58.674Z,23.58
2017-10-12T08:12:39.222Z,23.51
2017-10-12T08:13:19.665Z,23.52
2017-10-12T08:14:00.126Z,23.54
2017-10-12T08:14:40.571Z,23.52
2017-10-12T08:15:21.031Z,23.51
2017-10-12T08:16:01.495Z,23.55
2017-10-12T08:16:41.909Z,23.59
2017-10-12T08:17:22.367Z,23.67
2017-10-12T08:18:02.925Z,23.69
2017-10-12T08:18:43.564Z,23.74
2017-10-12T08:19:24.026Z,23.76
2017-10-12T08:20:04.483Z,23.66
2017-10-12T08:20:45.658Z,23.59
2017-10-12T08:21:26.105Z,23.73
2017-10-12T08:22:06.563Z,23.71
2017-10-12T08:22:47.018Z,23.66
2017-10-12T08:23:27.472Z,23.66
2017-10-12T08:24:07.937Z,23.63
2017-10-12T08:24:48.398Z,23.62
2017-10-12T08:25:28.842Z,23.58
2017-10-12T08:26:09.304Z,23.69
2017-10-12T08:26:49.862Z,23.63
2017-10-12T08:27:30.309Z,23.62
2017-10-12T08:28:10.763Z,23.73
2017-10-12T08:28:51.214Z,23.71
2017-10-12T08:29:31.667Z,23.77
2017-10-12T08:30:12.136Z,23.89
2017-10-12T08:30:52.596Z,23.89
2017-10-12T08:31:33.035Z,23.94
2017-10-12T08:32:13.472Z,24.01
2017-10-12T08:32:53.911Z,24
2017-10-12T08:33:34.359Z,24.18
2017-10-12T08:34:14.799Z,24.21
2017-10-12T08:34:55.259Z,24.18
2017-10-12T08:36:52.945Z,24.36
2017-10-12T08:37:33.402Z,24.36
2017-10-12T08:38:13.849Z,24.34
2017-10-12T08:38:54.283Z,24.43
2017-10-12T08:39:34.719Z,24.5
2017-10-12T08:40:15.165Z,24.46
2017-10-12T08:40:55.604Z,24.62
2017-10-12T08:41:36.049Z,24.62
2017-10-12T08:42:16.690Z,24.61
2017-10-12T08:42:57.139Z,24.66
2017-10-12T08:43:37.599Z,24.78
2017-10-12T08:44:18.062Z,24.84
2017-10-12T08:44:58.512Z,24.84
2017-10-12T08:45:38.956Z,24.86
2017-10-12T08:46:19.451Z,24.86
2017-10-12T08:46:59.914Z,24.99
2017-10-12T08:47:40.469Z,24.99
2017-10-12T08:48:20.946Z,25.06